sensor_id;sensor_type;location;lat;lon;timestamp;P1;durP1;ratioP1;P2;durP2;ratioP2
59189;SDS011;50749;51.636;4.948;2024-02-16T00:01:43;1.52;;;0.70;;
59189;SDS011;50749;51.636;4.948;2024-02-16T00:04:12;1.13;;;0.70;;
59189;SDS011;50749;51.636;4.948;2024-02-16T00:06:41;1.65;;;0.70;;
59189;SDS011;50749;51.636;4.948;2024-02-16T00:09:09;3.78;;;1.10;;
59189;SDS011;50749;51.636;4.948;2024-02-16T00:11:41;1.52;;;0.73;;
59189;SDS011;50749;51.636;4.948;2024-02-16T00:14:10;2.35;;;0.60;;
59189;SDS011;50749;51.636;4.948;2024-02-16T00:16:39;1.15;;;0.55;;
59189;SDS011;50749;51.636;4.948;2024-02-16T00:19:08;1.90;;;0.68;;
59189;SDS011;50749;51.636;4.948;2024-02-16T00:21:37;1.80;;;0.82;;
59189;SDS011;50749;51.636;4.948;2024-02-16T00:24:07;2.30;;;0.80;;
59189;SDS011;50749;51.636;4.948;2024-02-16T00:26:36;1.98;;;0.60;;
59189;SDS011;50749;51.636;4.948;2024-02-16T00:29:08;2.28;;;1.23;;
59189;SDS011;50749;51.636;4.948;2024-02-16T00:31:37;1.02;;;0.57;;
59189;SDS011;50749;51.636;4.948;2024-02-16T00:34:06;1.48;;;0.60;;
59189;SDS011;50749;51.636;4.948;2024-02-16T00:36:35;1.20;;;0.70;;
59189;SDS011;50749;51.636;4.948;2024-02-16T00:39:03;1.90;;;1.00;;
59189;SDS011;50749;51.636;4.948;2024-02-16T00:41:32;1.67;;;0.77;;
59189;SDS011;50749;51.636;4.948;2024-02-16T00:44:01;2.50;;;0.80;;
59189;SDS011;50749;51.636;4.948;2024-02-16T00:46:33;1.00;;;0.70;;
59189;SDS011;50749;51.636;4.948;2024-02-16T00:49:03;2.60;;;0.90;;
59189;SDS011;50749;51.636;4.948;2024-02-16T00:51:32;3.00;;;0.60;;
59189;SDS011;50749;51.636;4.948;2024-02-16T00:54:01;2.78;;;0.98;;
59189;SDS011;50749;51.636;4.948;2024-02-16T00:56:31;1.30;;;0.75;;
59189;SDS011;50749;51.636;4.948;2024-02-16T00:59:00;1.60;;;0.70;;
59189;SDS011;50749;51.636;4.948;2024-02-16T01:01:29;1.80;;;0.80;;
59189;SDS011;50749;51.636;4.948;2024-02-16T01:04:01;1.67;;;0.95;;
59189;SDS011;50749;51.636;4.948;2024-02-16T01:06:32;1.20;;;0.55;;
59189;SDS011;50749;51.636;4.948;2024-02-16T01:09:01;1.10;;;0.57;;
59189;SDS011;50749;51.636;4.948;2024-02-16T01:11:31;1.25;;;0.70;;
59189;SDS011;50749;51.636;4.948;2024-02-16T01:14:00;1.30;;;0.57;;
59189;SDS011;50749;51.636;4.948;2024-02-16T01:16:29;0.90;;;0.50;;
59189;SDS011;50749;51.636;4.948;2024-02-16T01:18:57;1.60;;;1.00;;
59189;SDS011;50749;51.636;4.948;2024-02-16T01:21:29;1.10;;;0.60;;
59189;SDS011;50749;51.636;4.948;2024-02-16T01:23:57;1.52;;;0.68;;
59189;SDS011;50749;51.636;4.948;2024-02-16T01:26:27;1.20;;;0.73;;
59189;SDS011;50749;51.636;4.948;2024-02-16T01:28:56;2.47;;;1.00;;
59189;SDS011;50749;51.636;4.948;2024-02-16T01:31:25;1.42;;;0.90;;
59189;SDS011;50749;51.636;4.948;2024-02-16T01:33:53;1.23;;;0.60;;
59189;SDS011;50749;51.636;4.948;2024-02-16T01:36:22;1.48;;;0.63;;
59189;SDS011;50749;51.636;4.948;2024-02-16T01:38:53;2.22;;;1.00;;
59189;SDS011;50749;51.636;4.948;2024-02-16T01:41:22;1.23;;;0.70;;
59189;SDS011;50749;51.636;4.948;2024-02-16T01:43:51;1.20;;;0.60;;
59189;SDS011;50749;51.636;4.948;2024-02-16T01:46:20;1.52;;;0.70;;
59189;SDS011;50749;51.636;4.948;2024-02-16T01:48:50;1.30;;;0.70;;
59189;SDS011;50749;51.636;4.948;2024-02-16T01:51:21;1.85;;;0.63;;
59189;SDS011;50749;51.636;4.948;2024-02-16T01:53:54;1.05;;;0.70;;
59189;SDS011;50749;51.636;4.948;2024-02-16T01:56:24;1.77;;;0.85;;
59189;SDS011;50749;51.636;4.948;2024-02-16T01:58:52;1.02;;;0.63;;
59189;SDS011;50749;51.636;4.948;2024-02-16T02:01:21;2.35;;;0.90;;
59189;SDS011;50749;51.636;4.948;2024-02-16T02:03:50;0.93;;;0.70;;
59189;SDS011;50749;51.636;4.948;2024-02-16T02:06:19;1.45;;;0.90;;
59189;SDS011;50749;51.636;4.948;2024-02-16T02:08:48;2.20;;;0.73;;
59189;SDS011;50749;51.636;4.948;2024-02-16T02:11:19;1.17;;;0.60;;
59189;SDS011;50749;51.636;4.948;2024-02-16T02:13:48;1.77;;;0.88;;
59189;SDS011;50749;51.636;4.948;2024-02-16T02:16:18;1.92;;;0.90;;
59189;SDS011;50749;51.636;4.948;2024-02-16T02:18:47;1.20;;;0.60;;
59189;SDS011;50749;51.636;4.948;2024-02-16T02:21:16;2.25;;;0.90;;
59189;SDS011;50749;51.636;4.948;2024-02-16T02:23:47;1.50;;;0.90;;
59189;SDS011;50749;51.636;4.948;2024-02-16T02:26:16;1.17;;;0.80;;
59189;SDS011;50749;51.636;4.948;2024-02-16T02:28:45;1.48;;;0.90;;
59189;SDS011;50749;51.636;4.948;2024-02-16T02:31:16;1.70;;;1.08;;
59189;SDS011;50749;51.636;4.948;2024-02-16T02:33:44;1.65;;;0.70;;
59189;SDS011;50749;51.636;4.948;2024-02-16T02:36:13;2.28;;;0.65;;
59189;SDS011;50749;51.636;4.948;2024-02-16T02:38:42;1.30;;;0.70;;
59189;SDS011;50749;51.636;4.948;2024-02-16T02:41:13;1.23;;;0.70;;
59189;SDS011;50749;51.636;4.948;2024-02-16T02:43:45;1.75;;;0.70;;
59189;SDS011;50749;51.636;4.948;2024-02-16T02:46:14;1.70;;;0.80;;
59189;SDS011;50749;51.636;4.948;2024-02-16T02:48:44;3.00;;;0.77;;
59189;SDS011;50749;51.636;4.948;2024-02-16T02:51:13;1.08;;;0.60;;
59189;SDS011;50749;51.636;4.948;2024-02-16T02:53:42;1.02;;;0.60;;
59189;SDS011;50749;51.636;4.948;2024-02-16T02:56:14;1.55;;;0.80;;
59189;SDS011;50749;51.636;4.948;2024-02-16T02:58:43;2.13;;;0.77;;
59189;SDS011;50749;51.636;4.948;2024-02-16T03:01:12;1.42;;;0.70;;
59189;SDS011;50749;51.636;4.948;2024-02-16T03:03:45;1.55;;;0.82;;
59189;SDS011;50749;51.636;4.948;2024-02-16T03:06:17;1.25;;;0.60;;
59189;SDS011;50749;51.636;4.948;2024-02-16T03:08:46;1.35;;;0.70;;
59189;SDS011;50749;51.636;4.948;2024-02-16T03:11:17;1.60;;;0.60;;
59189;SDS011;50749;51.636;4.948;2024-02-16T03:13:46;1.42;;;0.73;;
59189;SDS011;50749;51.636;4.948;2024-02-16T03:16:15;2.08;;;0.80;;
59189;SDS011;50749;51.636;4.948;2024-02-16T03:18:43;1.13;;;0.60;;
59189;SDS011;50749;51.636;4.948;2024-02-16T03:21:13;2.50;;;0.80;;
59189;SDS011;50749;51.636;4.948;2024-02-16T03:23:43;1.00;;;0.68;;
59189;SDS011;50749;51.636;4.948;2024-02-16T03:26:18;1.35;;;0.70;;
59189;SDS011;50749;51.636;4.948;2024-02-16T03:28:48;1.58;;;0.80;;
59189;SDS011;50749;51.636;4.948;2024-02-16T03:31:18;1.33;;;0.75;;
59189;SDS011;50749;51.636;4.948;2024-02-16T03:33:47;1.48;;;1.00;;
59189;SDS011;50749;51.636;4.948;2024-02-16T03:36:17;2.00;;;0.85;;
59189;SDS011;50749;51.636;4.948;2024-02-16T03:38:47;2.08;;;0.82;;
59189;SDS011;50749;51.636;4.948;2024-02-16T03:44:07;1.35;;;0.70;;
59189;SDS011;50749;51.636;4.948;2024-02-16T03:46:36;1.38;;;0.70;;
59189;SDS011;50749;51.636;4.948;2024-02-16T03:49:04;1.48;;;0.80;;
59189;SDS011;50749;51.636;4.948;2024-02-16T03:51:33;2.58;;;0.63;;
59189;SDS011;50749;51.636;4.948;2024-02-16T03:54:02;1.45;;;0.75;;
59189;SDS011;50749;51.636;4.948;2024-02-16T03:56:35;1.92;;;0.80;;
59189;SDS011;50749;51.636;4.948;2024-02-16T03:59:03;1.65;;;0.73;;
59189;SDS011;50749;51.636;4.948;2024-02-16T04:01:32;1.45;;;0.80;;
59189;SDS011;50749;51.636;4.948;2024-02-16T04:04:01;0.90;;;0.60;;
59189;SDS011;50749;51.636;4.948;2024-02-16T04:06:31;2.28;;;0.73;;
59189;SDS011;50749;51.636;4.948;2024-02-16T04:08:59;2.67;;;1.02;;
59189;SDS011;50749;51.636;4.948;2024-02-16T04:11:28;1.58;;;1.10;;
59189;SDS011;50749;51.636;4.948;2024-02-16T04:14:00;1.45;;;0.70;;
59189;SDS011;50749;51.636;4.948;2024-02-16T04:16:29;1.55;;;0.77;;
59189;SDS011;50749;51.636;4.948;2024-02-16T04:18:57;0.85;;;0.65;;
59189;SDS011;50749;51.636;4.948;2024-02-16T04:21:26;1.50;;;0.93;;
59189;SDS011;50749;51.636;4.948;2024-02-16T04:23:55;1.05;;;0.70;;
59189;SDS011;50749;51.636;4.948;2024-02-16T04:26:24;1.55;;;0.82;;
59189;SDS011;50749;51.636;4.948;2024-02-16T04:28:52;2.33;;;1.15;;
59189;SDS011;50749;51.636;4.948;2024-02-16T04:31:24;1.60;;;0.73;;
59189;SDS011;50749;51.636;4.948;2024-02-16T04:33:52;1.80;;;0.77;;
59189;SDS011;50749;51.636;4.948;2024-02-16T04:36:21;1.40;;;0.80;;
59189;SDS011;50749;51.636;4.948;2024-02-16T04:38:50;0.63;;;0.50;;
59189;SDS011;50749;51.636;4.948;2024-02-16T04:41:19;2.05;;;0.75;;
59189;SDS011;50749;51.636;4.948;2024-02-16T04:43:48;1.15;;;0.70;;
59189;SDS011;50749;51.636;4.948;2024-02-16T04:46:19;1.42;;;0.85;;
59189;SDS011;50749;51.636;4.948;2024-02-16T04:48:50;2.08;;;0.85;;
59189;SDS011;50749;51.636;4.948;2024-02-16T04:51:19;1.88;;;0.95;;
59189;SDS011;50749;51.636;4.948;2024-02-16T04:53:48;1.33;;;0.80;;
59189;SDS011;50749;51.636;4.948;2024-02-16T04:56:16;1.30;;;0.73;;
59189;SDS011;50749;51.636;4.948;2024-02-16T04:58:45;2.58;;;0.80;;
59189;SDS011;50749;51.636;4.948;2024-02-16T05:01:14;1.83;;;0.80;;
59189;SDS011;50749;51.636;4.948;2024-02-16T05:03:43;1.05;;;0.70;;
59189;SDS011;50749;51.636;4.948;2024-02-16T05:06:14;2.05;;;0.70;;
59189;SDS011;50749;51.636;4.948;2024-02-16T05:08:43;0.95;;;0.63;;
59189;SDS011;50749;51.636;4.948;2024-02-16T05:11:12;0.95;;;0.60;;
59189;SDS011;50749;51.636;4.948;2024-02-16T05:13:41;0.93;;;0.60;;
59189;SDS011;50749;51.636;4.948;2024-02-16T05:16:10;1.00;;;0.60;;
59189;SDS011;50749;51.636;4.948;2024-02-16T05:18:38;4.60;;;1.00;;
59189;SDS011;50749;51.636;4.948;2024-02-16T05:21:08;1.58;;;0.55;;
59189;SDS011;50749;51.636;4.948;2024-02-16T05:23:40;1.48;;;0.80;;
59189;SDS011;50749;51.636;4.948;2024-02-16T05:26:09;1.67;;;0.68;;
59189;SDS011;50749;51.636;4.948;2024-02-16T05:28:38;1.70;;;1.00;;
59189;SDS011;50749;51.636;4.948;2024-02-16T05:31:12;0.65;;;0.50;;
59189;SDS011;50749;51.636;4.948;2024-02-16T05:33:43;1.75;;;0.80;;
59189;SDS011;50749;51.636;4.948;2024-02-16T05:36:15;1.05;;;0.63;;
59189;SDS011;50749;51.636;4.948;2024-02-16T05:38:48;1.30;;;0.70;;
59189;SDS011;50749;51.636;4.948;2024-02-16T05:41:20;1.25;;;0.70;;
59189;SDS011;50749;51.636;4.948;2024-02-16T05:43:49;1.17;;;0.80;;
59189;SDS011;50749;51.636;4.948;2024-02-16T05:46:17;0.93;;;0.80;;
59189;SDS011;50749;51.636;4.948;2024-02-16T05:48:46;1.27;;;0.70;;
59189;SDS011;50749;51.636;4.948;2024-02-16T05:51:15;1.58;;;0.98;;
59189;SDS011;50749;51.636;4.948;2024-02-16T05:53:44;1.63;;;0.80;;
59189;SDS011;50749;51.636;4.948;2024-02-16T05:56:16;2.15;;;1.17;;
59189;SDS011;50749;51.636;4.948;2024-02-16T05:58:44;1.90;;;0.95;;
59189;SDS011;50749;51.636;4.948;2024-02-16T06:01:15;1.45;;;0.93;;
59189;SDS011;50749;51.636;4.948;2024-02-16T06:03:44;1.88;;;0.88;;
59189;SDS011;50749;51.636;4.948;2024-02-16T06:06:13;2.08;;;1.00;;
59189;SDS011;50749;51.636;4.948;2024-02-16T06:08:42;4.00;;;1.23;;
59189;SDS011;50749;51.636;4.948;2024-02-16T06:11:10;3.45;;;1.08;;
59189;SDS011;50749;51.636;4.948;2024-02-16T06:13:43;1.48;;;0.80;;
59189;SDS011;50749;51.636;4.948;2024-02-16T06:16:12;2.47;;;0.73;;
59189;SDS011;50749;51.636;4.948;2024-02-16T06:18:41;1.05;;;0.73;;
59189;SDS011;50749;51.636;4.948;2024-02-16T06:21:10;2.15;;;0.90;;
59189;SDS011;50749;51.636;4.948;2024-02-16T06:23:41;1.83;;;0.80;;
59189;SDS011;50749;51.636;4.948;2024-02-16T06:26:10;1.70;;;0.75;;
59189;SDS011;50749;51.636;4.948;2024-02-16T06:28:39;1.23;;;0.70;;
59189;SDS011;50749;51.636;4.948;2024-02-16T06:31:11;2.05;;;1.00;;
59189;SDS011;50749;51.636;4.948;2024-02-16T06:33:41;4.80;;;1.05;;
59189;SDS011;50749;51.636;4.948;2024-02-16T06:36:09;3.17;;;0.75;;
59189;SDS011;50749;51.636;4.948;2024-02-16T06:38:38;4.28;;;0.95;;
59189;SDS011;50749;51.636;4.948;2024-02-16T06:41:07;3.17;;;0.90;;
59189;SDS011;50749;51.636;4.948;2024-02-16T06:43:36;1.65;;;0.95;;
59189;SDS011;50749;51.636;4.948;2024-02-16T06:46:05;1.17;;;0.70;;
59189;SDS011;50749;51.636;4.948;2024-02-16T06:48:36;1.42;;;0.70;;
59189;SDS011;50749;51.636;4.948;2024-02-16T06:51:05;1.13;;;0.65;;
59189;SDS011;50749;51.636;4.948;2024-02-16T06:53:33;1.27;;;0.70;;
59189;SDS011;50749;51.636;4.948;2024-02-16T06:56:02;1.63;;;0.85;;
59189;SDS011;50749;51.636;4.948;2024-02-16T06:58:31;1.00;;;0.60;;
59189;SDS011;50749;51.636;4.948;2024-02-16T07:01:02;0.80;;;0.60;;
59189;SDS011;50749;51.636;4.948;2024-02-16T07:03:31;1.67;;;0.90;;
59189;SDS011;50749;51.636;4.948;2024-02-16T07:06:05;1.40;;;0.80;;
59189;SDS011;50749;51.636;4.948;2024-02-16T07:08:35;1.88;;;0.90;;
59189;SDS011;50749;51.636;4.948;2024-02-16T07:11:04;2.42;;;0.90;;
59189;SDS011;50749;51.636;4.948;2024-02-16T07:13:33;1.70;;;1.05;;
59189;SDS011;50749;51.636;4.948;2024-02-16T07:16:03;3.40;;;0.82;;
59189;SDS011;50749;51.636;4.948;2024-02-16T07:18:32;1.45;;;0.73;;
59189;SDS011;50749;51.636;4.948;2024-02-16T07:21:01;3.03;;;0.90;;
59189;SDS011;50749;51.636;4.948;2024-02-16T07:23:34;2.75;;;0.75;;
59189;SDS011;50749;51.636;4.948;2024-02-16T07:26:03;1.55;;;0.90;;
59189;SDS011;50749;51.636;4.948;2024-02-16T07:28:33;2.88;;;0.70;;
59189;SDS011;50749;51.636;4.948;2024-02-16T07:31:02;2.38;;;1.10;;
59189;SDS011;50749;51.636;4.948;2024-02-16T07:33:31;1.60;;;0.80;;
59189;SDS011;50749;51.636;4.948;2024-02-16T07:36:00;1.40;;;0.77;;
59189;SDS011;50749;51.636;4.948;2024-02-16T07:38:31;1.77;;;1.00;;
59189;SDS011;50749;51.636;4.948;2024-02-16T07:41:00;1.48;;;0.63;;
59189;SDS011;50749;51.636;4.948;2024-02-16T07:43:30;1.42;;;0.75;;
59189;SDS011;50749;51.636;4.948;2024-02-16T07:45:59;1.80;;;0.88;;
59189;SDS011;50749;51.636;4.948;2024-02-16T07:48:29;1.92;;;0.90;;
59189;SDS011;50749;51.636;4.948;2024-02-16T07:50:58;1.15;;;0.80;;
59189;SDS011;50749;51.636;4.948;2024-02-16T07:53:30;2.25;;;0.90;;
59189;SDS011;50749;51.636;4.948;2024-02-16T07:56:00;2.20;;;1.00;;
59189;SDS011;50749;51.636;4.948;2024-02-16T07:58:29;1.63;;;1.05;;
59189;SDS011;50749;51.636;4.948;2024-02-16T08:00:58;1.52;;;0.80;;
59189;SDS011;50749;51.636;4.948;2024-02-16T08:03:24;1.42;;;0.88;;
59189;SDS011;50749;51.636;4.948;2024-02-16T08:05:53;3.13;;;1.13;;
59189;SDS011;50749;51.636;4.948;2024-02-16T08:08:22;1.63;;;0.90;;
59189;SDS011;50749;51.636;4.948;2024-02-16T08:10:54;1.13;;;0.70;;
59189;SDS011;50749;51.636;4.948;2024-02-16T08:13:22;1.70;;;0.90;;
59189;SDS011;50749;51.636;4.948;2024-02-16T08:15:51;1.15;;;0.80;;
59189;SDS011;50749;51.636;4.948;2024-02-16T08:18:20;1.50;;;0.93;;
59189;SDS011;50749;51.636;4.948;2024-02-16T08:20:49;1.27;;;0.85;;
59189;SDS011;50749;51.636;4.948;2024-02-16T08:23:18;1.42;;;0.70;;
59189;SDS011;50749;51.636;4.948;2024-02-16T08:25:47;1.95;;;0.95;;
59189;SDS011;50749;51.636;4.948;2024-02-16T08:28:18;1.48;;;0.85;;
59189;SDS011;50749;51.636;4.948;2024-02-16T08:30:47;3.10;;;0.80;;
59189;SDS011;50749;51.636;4.948;2024-02-16T08:33:15;1.95;;;0.85;;
59189;SDS011;50749;51.636;4.948;2024-02-16T08:35:44;1.23;;;0.70;;
59189;SDS011;50749;51.636;4.948;2024-02-16T08:38:13;2.08;;;0.88;;
59189;SDS011;50749;51.636;4.948;2024-02-16T08:40:42;1.35;;;0.80;;
59189;SDS011;50749;51.636;4.948;2024-02-16T08:43:12;1.40;;;0.75;;
59189;SDS011;50749;51.636;4.948;2024-02-16T08:45:44;1.75;;;1.10;;
59189;SDS011;50749;51.636;4.948;2024-02-16T08:48:12;3.67;;;1.58;;
59189;SDS011;50749;51.636;4.948;2024-02-16T08:50:41;2.63;;;1.05;;
59189;SDS011;50749;51.636;4.948;2024-02-16T08:53:10;2.15;;;0.90;;
59189;SDS011;50749;51.636;4.948;2024-02-16T08:55:39;1.42;;;0.90;;
59189;SDS011;50749;51.636;4.948;2024-02-16T08:58:08;2.08;;;0.85;;
59189;SDS011;50749;51.636;4.948;2024-02-16T09:00:38;1.77;;;0.82;;
59189;SDS011;50749;51.636;4.948;2024-02-16T09:03:09;1.40;;;0.90;;
59189;SDS011;50749;51.636;4.948;2024-02-16T09:05:38;2.75;;;0.98;;
59189;SDS011;50749;51.636;4.948;2024-02-16T09:08:08;1.30;;;0.90;;
59189;SDS011;50749;51.636;4.948;2024-02-16T09:10:37;2.13;;;0.98;;
59189;SDS011;50749;51.636;4.948;2024-02-16T09:13:06;1.30;;;0.90;;
59189;SDS011;50749;51.636;4.948;2024-02-16T09:15:35;1.30;;;0.98;;
59189;SDS011;50749;51.636;4.948;2024-02-16T09:18:04;1.48;;;1.05;;
59189;SDS011;50749;51.636;4.948;2024-02-16T09:20:35;1.73;;;0.90;;
59189;SDS011;50749;51.636;4.948;2024-02-16T09:23:04;2.92;;;1.15;;
59189;SDS011;50749;51.636;4.948;2024-02-16T09:25:33;2.55;;;1.10;;
59189;SDS011;50749;51.636;4.948;2024-02-16T09:28:03;5.78;;;0.95;;
59189;SDS011;50749;51.636;4.948;2024-02-16T09:30:32;1.75;;;1.20;;
59189;SDS011;50749;51.636;4.948;2024-02-16T09:33:01;2.88;;;1.13;;
59189;SDS011;50749;51.636;4.948;2024-02-16T09:35:30;3.63;;;1.15;;
59189;SDS011;50749;51.636;4.948;2024-02-16T09:38:01;4.18;;;1.73;;
59189;SDS011;50749;51.636;4.948;2024-02-16T09:40:31;6.60;;;2.00;;
59189;SDS011;50749;51.636;4.948;2024-02-16T09:42:59;3.63;;;1.95;;
59189;SDS011;50749;51.636;4.948;2024-02-16T09:45:29;7.40;;;2.00;;
59189;SDS011;50749;51.636;4.948;2024-02-16T09:47:59;2.97;;;1.30;;
59189;SDS011;50749;51.636;4.948;2024-02-16T09:50:29;1.92;;;1.30;;
59189;SDS011;50749;51.636;4.948;2024-02-16T09:52:57;4.80;;;1.88;;
59189;SDS011;50749;51.636;4.948;2024-02-16T09:55:30;3.55;;;1.50;;
59189;SDS011;50749;51.636;4.948;2024-02-16T09:58:00;2.08;;;1.30;;
59189;SDS011;50749;51.636;4.948;2024-02-16T10:00:30;3.78;;;1.58;;
59189;SDS011;50749;51.636;4.948;2024-02-16T10:02:59;3.25;;;1.55;;
59189;SDS011;50749;51.636;4.948;2024-02-16T10:05:29;5.35;;;1.90;;
59189;SDS011;50749;51.636;4.948;2024-02-16T10:07:58;4.40;;;1.70;;
59189;SDS011;50749;51.636;4.948;2024-02-16T10:10:28;2.83;;;1.40;;
59189;SDS011;50749;51.636;4.948;2024-02-16T10:13:02;3.88;;;1.80;;
59189;SDS011;50749;51.636;4.948;2024-02-16T10:15:33;2.90;;;1.30;;
59189;SDS011;50749;51.636;4.948;2024-02-16T10:18:02;3.28;;;1.30;;
59189;SDS011;50749;51.636;4.948;2024-02-16T10:20:33;3.10;;;1.50;;
59189;SDS011;50749;51.636;4.948;2024-02-16T10:23:04;6.93;;;2.65;;
59189;SDS011;50749;51.636;4.948;2024-02-16T10:25:37;6.60;;;2.40;;
59189;SDS011;50749;51.636;4.948;2024-02-16T10:28:08;2.80;;;1.50;;
59189;SDS011;50749;51.636;4.948;2024-02-16T10:30:40;5.35;;;2.28;;
59189;SDS011;50749;51.636;4.948;2024-02-16T10:33:10;4.97;;;2.60;;
59189;SDS011;50749;51.636;4.948;2024-02-16T10:35:40;6.80;;;2.30;;
59189;SDS011;50749;51.636;4.948;2024-02-16T10:38:09;5.90;;;2.40;;
59189;SDS011;50749;51.636;4.948;2024-02-16T10:40:42;7.55;;;2.65;;
59189;SDS011;50749;51.636;4.948;2024-02-16T10:43:11;8.20;;;3.40;;
59189;SDS011;50749;51.636;4.948;2024-02-16T10:45:42;6.60;;;2.83;;
59189;SDS011;50749;51.636;4.948;2024-02-16T10:48:12;4.32;;;2.10;;
59189;SDS011;50749;51.636;4.948;2024-02-16T10:50:42;7.63;;;2.38;;
59189;SDS011;50749;51.636;4.948;2024-02-16T10:53:15;4.70;;;2.35;;
59189;SDS011;50749;51.636;4.948;2024-02-16T10:55:51;6.22;;;2.42;;
59189;SDS011;50749;51.636;4.948;2024-02-16T10:58:20;4.05;;;2.17;;
59189;SDS011;50749;51.636;4.948;2024-02-16T11:00:52;4.75;;;2.40;;
59189;SDS011;50749;51.636;4.948;2024-02-16T11:03:23;4.10;;;2.58;;
59189;SDS011;50749;51.636;4.948;2024-02-16T11:05:54;3.25;;;1.85;;
59189;SDS011;50749;51.636;4.948;2024-02-16T11:08:24;3.95;;;1.90;;
59189;SDS011;50749;51.636;4.948;2024-02-16T11:11:01;4.57;;;2.50;;
59189;SDS011;50749;51.636;4.948;2024-02-16T11:13:32;3.30;;;2.20;;
59189;SDS011;50749;51.636;4.948;2024-02-16T11:16:03;3.70;;;2.30;;
59189;SDS011;50749;51.636;4.948;2024-02-16T11:18:38;4.53;;;1.98;;
59189;SDS011;50749;51.636;4.948;2024-02-16T11:21:11;2.70;;;1.73;;
59189;SDS011;50749;51.636;4.948;2024-02-16T11:23:40;4.80;;;2.00;;
59189;SDS011;50749;51.636;4.948;2024-02-16T11:26:12;3.45;;;1.83;;
59189;SDS011;50749;51.636;4.948;2024-02-16T11:28:41;3.13;;;2.00;;
59189;SDS011;50749;51.636;4.948;2024-02-16T11:31:11;4.60;;;2.13;;
59189;SDS011;50749;51.636;4.948;2024-02-16T11:33:42;3.75;;;2.30;;
59189;SDS011;50749;51.636;4.948;2024-02-16T11:36:12;4.72;;;2.67;;
59189;SDS011;50749;51.636;4.948;2024-02-16T11:38:41;4.78;;;2.05;;
59189;SDS011;50749;51.636;4.948;2024-02-16T11:41:12;2.75;;;1.92;;
59189;SDS011;50749;51.636;4.948;2024-02-16T11:43:43;4.30;;;2.10;;
59189;SDS011;50749;51.636;4.948;2024-02-16T11:46:12;3.35;;;1.70;;
59189;SDS011;50749;51.636;4.948;2024-02-16T11:48:42;2.90;;;1.77;;
59189;SDS011;50749;51.636;4.948;2024-02-16T11:51:10;4.40;;;1.60;;
59189;SDS011;50749;51.636;4.948;2024-02-16T11:53:43;3.35;;;1.80;;
59189;SDS011;50749;51.636;4.948;2024-02-16T11:56:23;5.07;;;1.90;;
59189;SDS011;50749;51.636;4.948;2024-02-16T11:58:53;3.85;;;1.70;;
59189;SDS011;50749;51.636;4.948;2024-02-16T12:01:22;3.95;;;2.30;;
59189;SDS011;50749;51.636;4.948;2024-02-16T12:03:51;3.33;;;1.95;;
59189;SDS011;50749;51.636;4.948;2024-02-16T12:06:20;3.35;;;2.05;;
59189;SDS011;50749;51.636;4.948;2024-02-16T12:08:49;4.47;;;2.05;;
59189;SDS011;50749;51.636;4.948;2024-02-16T12:11:19;4.82;;;1.95;;
59189;SDS011;50749;51.636;4.948;2024-02-16T12:13:51;3.80;;;1.75;;
59189;SDS011;50749;51.636;4.948;2024-02-16T12:16:19;5.65;;;2.13;;
59189;SDS011;50749;51.636;4.948;2024-02-16T12:18:48;5.00;;;2.30;;
59189;SDS011;50749;51.636;4.948;2024-02-16T12:21:17;6.63;;;2.55;;
59189;SDS011;50749;51.636;4.948;2024-02-16T12:23:47;4.47;;;2.40;;
59189;SDS011;50749;51.636;4.948;2024-02-16T12:26:16;5.30;;;2.42;;
59189;SDS011;50749;51.636;4.948;2024-02-16T12:28:45;4.28;;;2.20;;
59189;SDS011;50749;51.636;4.948;2024-02-16T12:31:20;4.07;;;2.33;;
59189;SDS011;50749;51.636;4.948;2024-02-16T12:33:51;5.93;;;1.73;;
59189;SDS011;50749;51.636;4.948;2024-02-16T12:36:21;2.72;;;1.80;;
59189;SDS011;50749;51.636;4.948;2024-02-16T12:38:50;4.35;;;1.90;;
59189;SDS011;50749;51.636;4.948;2024-02-16T12:41:19;3.17;;;1.80;;
59189;SDS011;50749;51.636;4.948;2024-02-16T12:43:48;6.13;;;2.60;;
59189;SDS011;50749;51.636;4.948;2024-02-16T12:46:17;3.25;;;1.90;;
59189;SDS011;50749;51.636;4.948;2024-02-16T12:48:50;2.63;;;1.52;;
59189;SDS011;50749;51.636;4.948;2024-02-16T12:51:19;2.63;;;1.55;;
59189;SDS011;50749;51.636;4.948;2024-02-16T12:53:48;5.32;;;1.83;;
59189;SDS011;50749;51.636;4.948;2024-02-16T12:56:18;5.68;;;1.73;;
59189;SDS011;50749;51.636;4.948;2024-02-16T12:58:46;2.55;;;1.58;;
59189;SDS011;50749;51.636;4.948;2024-02-16T13:01:16;2.38;;;1.38;;
59189;SDS011;50749;51.636;4.948;2024-02-16T13:03:47;4.93;;;1.60;;
59189;SDS011;50749;51.636;4.948;2024-02-16T13:06:17;4.35;;;1.83;;
59189;SDS011;50749;51.636;4.948;2024-02-16T13:08:45;2.95;;;1.55;;
59189;SDS011;50749;51.636;4.948;2024-02-16T13:11:14;3.00;;;1.52;;
59189;SDS011;50749;51.636;4.948;2024-02-16T13:13:43;3.38;;;1.58;;
59189;SDS011;50749;51.636;4.948;2024-02-16T13:16:12;3.78;;;1.70;;
59189;SDS011;50749;51.636;4.948;2024-02-16T13:18:40;2.28;;;1.52;;
59189;SDS011;50749;51.636;4.948;2024-02-16T13:21:12;4.53;;;1.77;;
59189;SDS011;50749;51.636;4.948;2024-02-16T13:23:41;4.78;;;1.63;;
59189;SDS011;50749;51.636;4.948;2024-02-16T13:26:10;2.67;;;1.83;;
59189;SDS011;50749;51.636;4.948;2024-02-16T13:28:38;3.25;;;1.50;;
59189;SDS011;50749;51.636;4.948;2024-02-16T13:31:07;4.32;;;1.50;;
59189;SDS011;50749;51.636;4.948;2024-02-16T13:33:37;3.22;;;1.65;;
59189;SDS011;50749;51.636;4.948;2024-02-16T13:36:06;4.20;;;1.80;;
59189;SDS011;50749;51.636;4.948;2024-02-16T13:38:37;4.20;;;1.73;;
59189;SDS011;50749;51.636;4.948;2024-02-16T13:41:06;4.07;;;1.50;;
59189;SDS011;50749;51.636;4.948;2024-02-16T13:43:35;2.33;;;1.20;;
59189;SDS011;50749;51.636;4.948;2024-02-16T13:46:04;2.45;;;1.38;;
59189;SDS011;50749;51.636;4.948;2024-02-16T13:48:32;2.50;;;1.88;;
59189;SDS011;50749;51.636;4.948;2024-02-16T13:51:03;4.93;;;1.50;;
59189;SDS011;50749;51.636;4.948;2024-02-16T13:53:32;2.20;;;1.30;;
59189;SDS011;50749;51.636;4.948;2024-02-16T13:56:04;3.33;;;1.40;;
59189;SDS011;50749;51.636;4.948;2024-02-16T13:58:34;3.05;;;1.40;;
59189;SDS011;50749;51.636;4.948;2024-02-16T14:01:03;7.18;;;1.50;;
59189;SDS011;50749;51.636;4.948;2024-02-16T14:03:33;2.97;;;1.42;;
59189;SDS011;50749;51.636;4.948;2024-02-16T14:06:02;3.10;;;1.35;;
59189;SDS011;50749;51.636;4.948;2024-02-16T14:08:35;3.38;;;1.45;;
59189;SDS011;50749;51.636;4.948;2024-02-16T14:11:07;4.55;;;1.60;;
59189;SDS011;50749;51.636;4.948;2024-02-16T14:13:35;2.33;;;1.40;;
59189;SDS011;50749;51.636;4.948;2024-02-16T14:16:05;3.17;;;1.40;;
59189;SDS011;50749;51.636;4.948;2024-02-16T14:18:35;6.10;;;1.83;;
59189;SDS011;50749;51.636;4.948;2024-02-16T14:21:04;1.50;;;1.20;;
59189;SDS011;50749;51.636;4.948;2024-02-16T14:23:33;2.45;;;1.30;;
59189;SDS011;50749;51.636;4.948;2024-02-16T14:26:02;5.22;;;1.20;;
59189;SDS011;50749;51.636;4.948;2024-02-16T14:28:34;3.90;;;1.17;;
59189;SDS011;50749;51.636;4.948;2024-02-16T14:31:03;8.88;;;1.77;;
59189;SDS011;50749;51.636;4.948;2024-02-16T14:33:32;1.98;;;1.13;;
59189;SDS011;50749;51.636;4.948;2024-02-16T14:36:01;1.55;;;0.95;;
59189;SDS011;50749;51.636;4.948;2024-02-16T14:38:30;2.63;;;1.20;;
59189;SDS011;50749;51.636;4.948;2024-02-16T14:40:59;2.15;;;1.17;;
59189;SDS011;50749;51.636;4.948;2024-02-16T14:43:28;3.47;;;1.48;;
59189;SDS011;50749;51.636;4.948;2024-02-16T14:46:00;5.05;;;1.20;;
59189;SDS011;50749;51.636;4.948;2024-02-16T14:48:29;1.70;;;1.10;;
59189;SDS011;50749;51.636;4.948;2024-02-16T14:50:58;1.80;;;1.17;;
59189;SDS011;50749;51.636;4.948;2024-02-16T14:53:27;2.80;;;1.20;;
59189;SDS011;50749;51.636;4.948;2024-02-16T14:55:58;2.63;;;1.17;;
59189;SDS011;50749;51.636;4.948;2024-02-16T14:58:28;3.88;;;1.10;;
59189;SDS011;50749;51.636;4.948;2024-02-16T15:00:59;2.10;;;1.17;;
59189;SDS011;50749;51.636;4.948;2024-02-16T15:03:29;2.60;;;1.10;;
59189;SDS011;50749;51.636;4.948;2024-02-16T15:05:58;2.15;;;1.02;;